MiSS Maya — WDI5364 — position and weather

sailwx.info

Track history (hours):
 
Tides and Currents Weather Stations Pressure Air Temp Water Temp Dewpoint Dewpoint Depression Visibility Wind Speed Wind Dir Waves Ship Positions

MiSS Maya

Owner: American Workboats, Inc., Honolulu, HI. More information available from US FCC via Universal Licensing System and Coast Guard Vessel Documentation Center.

Last reported at 2018-Jul-23 03:15 UTC. Time now 2018-Aug-16 07:58 UTC.
Position N 33°44' W 118°16'.
Warning: this ship's position is 24 days out of date.

Length 39 m; draft 6.8 m.

Type: Military. MMSI: 367707820.

Date/timePositionNaut miles runAvg speedWind from/ knotsBaromVisibWave heightAir tempDewpointWater temp
2018-Jul-23 03:15N 33°44' W 118°16'2 7.5
2018-Jul-23 03:00N 33°42' W 118°15'816.1
2018-Jul-23 02:30N 33°44' W 118°25'817.0
2018-Jul-23 02:00N 33°52' W 118°28'1 2.4
2018-Jul-23 01:30N 33°53' W 118°28'0 0.2
2018-Jul-23 01:00N 33°53' W 118°29'0 0.1
2018-Jul-23 00:30N 33°53' W 118°29'0 0.1
2018-Jul-22 23:59N 33°53' W 118°29'0 0.1
2018-Jul-22 23:30N 33°53' W 118°29'0 0.0
2018-Jul-22 23:00N 33°53' W 118°29'1 1.6
2018-Jul-22 22:30N 33°53' W 118°28'815.3
2018-Jul-22 22:01N 33°45' W 118°25'815.2
2018-Jul-22 21:30N 33°42' W 118°17'2 0.1
2018-Jul-21 02:06N 33°44' W 118°16'0 0.1
2018-Jul-21 02:00N 33°44' W 118°16'0 0.0
2018-Jul-21 01:21N 33°44' W 118°16'0 0.0
2018-Jul-21 01:00N 33°44' W 118°16'0 0.0
2018-Jul-21 00:30N 33°44' W 118°16'1 2.4
2018-Jul-21 00:00N 33°43' W 118°15'4 8.1
2018-Jul-20 23:29N 33°44' W 118°10'0 0.0
2018-Jul-20 23:00N 33°44' W 118°10'0 0.0
2018-Jul-20 22:30N 33°44' W 118°10'0 0.2
2018-Jul-20 22:00N 33°44' W 118°10'0 0.3
2018-Jul-20 21:26N 33°44' W 118°10'0 0.1
2018-Jul-20 21:00N 33°44' W 118°10'0 0.1
2018-Jul-20 20:26N 33°44' W 118°10'3 7.7
2018-Jul-20 20:00N 33°43' W 118°14'2 3.1
2018-Jul-20 19:27N 33°44' W 118°16'0 0.0
2018-Jul-20 19:00N 33°44' W 118°16'3 5.7
2018-Jul-20 18:30N 33°42' W 118°18'815.4
2018-Jul-20 17:59N 33°46' W 118°26'715.3
2018-Jul-20 17:30N 33°54' W 118°29'1 0.7
2018-Jul-20 16:33N 33°54' W 118°29'0 0.0
2018-Jul-20 16:23N 33°54' W 118°29'0 0.2
2018-Jul-20 16:00N 33°54' W 118°29'3 5.5
2018-Jul-20 15:26N 33°52' W 118°27'714.1
2018-Jul-20 14:59N 33°45' W 118°25'613.6
2018-Jul-20 14:30N 33°42' W 118°19'3 6.6
2018-Jul-20 14:00N 33°44' W 118°16'0 0.0
2018-Jul-20 01:39N 33°44' W 118°16'0 0.0
2018-Jul-20 01:30N 33°44' W 118°16'2 4.8
2018-Jul-20 01:01N 33°42' W 118°14'  
2018-Jul-17 02:51N 33°44' W 118°16'3 8.1
2018-Jul-17 02:30N 33°42' W 118°14'5 9.6
2018-Jul-17 02:00N 33°41' W 118°08'0 0.1
2018-Jul-17 01:28N 33°41' W 118°08'0 0.1
2018-Jul-17 01:00N 33°41' W 118°08'0 0.1
2018-Jul-17 00:27N 33°41' W 118°08'0 0.1
2018-Jul-16 23:30N 33°41' W 118°08'0 0.1
2018-Jul-16 23:00N 33°41' W 118°08'0 0.2
2018-Jul-16 22:30N 33°41' W 118°08'713.3
2018-Jul-16 22:00N 33°43' W 118°16'  
2018-Jul-13 03:24N 33°44' W 118°16'  
Track history (hours):
 
Tides and Currents Weather Stations Pressure Air Temp Water Temp Dewpoint Dewpoint Depression Visibility Wind Speed Wind Dir Waves Ship Positions

MiSS Maya

Owner: American Workboats, Inc., Honolulu, HI. More information available from US FCC via Universal Licensing System and Coast Guard Vessel Documentation Center.

Last reported at 2018-Jul-23 03:15 UTC. Time now 2018-Aug-16 07:58 UTC.
Position N 33°44' W 118°16'.
Warning: this ship's position is 24 days out of date.

Length 39 m; draft 6.8 m.

Type: Military. MMSI: 367707820.

Date/timePositionNaut miles runAvg speedWind from/ knotsBaromVisibWave heightAir tempDewpointWater temp
2018-Jul-23 03:15N 33°44' W 118°16'2 7.5
2018-Jul-23 03:00N 33°42' W 118°15'816.1
2018-Jul-23 02:30N 33°44' W 118°25'817.0
2018-Jul-23 02:00N 33°52' W 118°28'1 2.4
2018-Jul-23 01:30N 33°53' W 118°28'0 0.2
2018-Jul-23 01:00N 33°53' W 118°29'0 0.1
2018-Jul-23 00:30N 33°53' W 118°29'0 0.1
2018-Jul-22 23:59N 33°53' W 118°29'0 0.1
2018-Jul-22 23:30N 33°53' W 118°29'0 0.0
2018-Jul-22 23:00N 33°53' W 118°29'1 1.6
2018-Jul-22 22:30N 33°53' W 118°28'815.3
2018-Jul-22 22:01N 33°45' W 118°25'815.2
2018-Jul-22 21:30N 33°42' W 118°17'2 0.1
2018-Jul-21 02:06N 33°44' W 118°16'0 0.1
2018-Jul-21 02:00N 33°44' W 118°16'0 0.0
2018-Jul-21 01:21N 33°44' W 118°16'0 0.0
2018-Jul-21 01:00N 33°44' W 118°16'0 0.0
2018-Jul-21 00:30N 33°44' W 118°16'1 2.4
2018-Jul-21 00:00N 33°43' W 118°15'4 8.1
2018-Jul-20 23:29N 33°44' W 118°10'0 0.0
2018-Jul-20 23:00N 33°44' W 118°10'0 0.0
2018-Jul-20 22:30N 33°44' W 118°10'0 0.2
2018-Jul-20 22:00N 33°44' W 118°10'0 0.3
2018-Jul-20 21:26N 33°44' W 118°10'0 0.1
2018-Jul-20 21:00N 33°44' W 118°10'0 0.1
2018-Jul-20 20:26N 33°44' W 118°10'3 7.7
2018-Jul-20 20:00N 33°43' W 118°14'2 3.1
2018-Jul-20 19:27N 33°44' W 118°16'0 0.0
2018-Jul-20 19:00N 33°44' W 118°16'3 5.7
2018-Jul-20 18:30N 33°42' W 118°18'815.4
2018-Jul-20 17:59N 33°46' W 118°26'715.3
2018-Jul-20 17:30N 33°54' W 118°29'1 0.7
2018-Jul-20 16:33N 33°54' W 118°29'0 0.0
2018-Jul-20 16:23N 33°54' W 118°29'0 0.2
2018-Jul-20 16:00N 33°54' W 118°29'3 5.5
2018-Jul-20 15:26N 33°52' W 118°27'714.1
2018-Jul-20 14:59N 33°45' W 118°25'613.6
2018-Jul-20 14:30N 33°42' W 118°19'3 6.6
2018-Jul-20 14:00N 33°44' W 118°16'0 0.0
2018-Jul-20 01:39N 33°44' W 118°16'0 0.0
2018-Jul-20 01:30N 33°44' W 118°16'2 4.8
2018-Jul-20 01:01N 33°42' W 118°14'  
2018-Jul-17 02:51N 33°44' W 118°16'3 8.1
2018-Jul-17 02:30N 33°42' W 118°14'5 9.6
2018-Jul-17 02:00N 33°41' W 118°08'0 0.1
2018-Jul-17 01:28N 33°41' W 118°08'0 0.1
2018-Jul-17 01:00N 33°41' W 118°08'0 0.1
2018-Jul-17 00:27N 33°41' W 118°08'0 0.1
2018-Jul-16 23:30N 33°41' W 118°08'0 0.1
2018-Jul-16 23:00N 33°41' W 118°08'0 0.2
2018-Jul-16 22:30N 33°41' W 118°08'713.3
2018-Jul-16 22:00N 33°43' W 118°16'  
2018-Jul-13 03:24N 33°44' W 118°16'  

Dump ship's entire track history